Assinippi, Massachusetts
Current Conditions -  °F | °C
As of 10:35 PM on Sunday 21 Dec 2014 (Local Time) from KGHG Reporting Station
Overcast Overcast  
Wind Chill: 33°   Ceiling: 5500
Heat Index: 37°   Visibility: 10mi
Dew Point: 36°   Wind: 6mph
Humidity: 93%   Direction: 360°N
Pressure: 30.36"   Gusts: NA
Location:  42.1315°N, 70.8467°W
Report Text: KGHG 220335Z AUTO 36005KT 10SM SCT012 OVC055 03/02 A3036 RMK AO2
Loading
Personal Weather Stations






























Interactive Weather Map New forecast layout! Learn more

10-Day Weather Forecast

Advertisements
Track Severe Weather on mobile